createdAt,value
2019-03-21T01:01:06.269Z,96774.65
2019-03-21T01:06:07.597Z,96771.55
2019-03-21T01:11:09.622Z,96768.94
2019-03-21T01:16:10.926Z,96767.16
2019-03-21T01:21:12.969Z,96760.02
2019-03-21T01:26:14.276Z,96750.47
2019-03-21T02:34:36.749Z,96736.23
2019-03-21T02:39:38.055Z,96736.31
2019-03-21T02:44:40.163Z,96733.31
2019-03-21T02:49:41.390Z,96731.98
2019-03-21T02:54:42.690Z,96736.77
2019-03-21T02:59:44.722Z,96736.56
2019-03-21T04:01:48.315Z,96730.35
2019-03-21T04:06:49.622Z,96732.51
2019-03-21T04:11:50.932Z,96732.34
2019-03-21T04:16:52.222Z,96731.13
2019-03-21T04:21:53.537Z,96730.73
2019-03-21T04:26:54.817Z,96729.42
2019-03-21T05:35:17.317Z,96662.02
2019-03-21T05:40:18.644Z,96661.37
2019-03-21T05:45:20.090Z,96661.66
2019-03-21T05:50:21.421Z,96672.50
2019-03-21T05:55:23.490Z,96680.34
2019-03-21T06:00:32.086Z,96683.38
2019-03-21T07:02:35.238Z,96733.28
2019-03-21T07:07:36.536Z,96738.27
2019-03-21T07:12:37.830Z,96739.47
2019-03-21T07:17:39.212Z,96736.03
2019-03-21T07:22:41.245Z,96735.29
2019-03-21T07:27:42.605Z,96734.41
2019-03-21T08:30:34.678Z,96741.31
2019-03-21T08:35:35.970Z,96747.79
2019-03-21T08:40:37.352Z,96735.98
2019-03-21T08:45:39.383Z,96739.98
2019-03-21T08:50:40.669Z,96741.53
2019-03-21T08:55:42.032Z,96737.02
2019-03-21T10:04:06.553Z,96707.52
2019-03-21T10:09:07.854Z,96700.59
2019-03-21T10:14:09.858Z,96696.78
2019-03-21T10:19:11.134Z,96695.11
2019-03-21T10:24:12.396Z,96691.55
2019-03-21T10:29:13.680Z,96693.20
2019-03-21T11:31:16.517Z,96648.55
2019-03-21T11:36:18.061Z,96636.38
2019-03-21T11:41:19.352Z,96640.37
2019-03-21T11:46:20.671Z,96626.83
2019-03-21T11:51:22.007Z,96614.42
2019-03-21T11:56:23.327Z,96606.55
2019-03-21T13:04:47.158Z,96520.76
2019-03-21T13:09:48.473Z,96514.05
2019-03-21T13:14:49.771Z,96517.41
2019-03-21T13:19:51.047Z,96513.84
2019-03-21T13:24:52.310Z,96517.67
2019-03-21T13:29:53.637Z,96504.45
2019-03-21T14:31:56.243Z,96457.09
2019-03-21T14:36:58.252Z,96470.41
2019-03-21T14:41:59.561Z,96458.33
2019-03-21T14:47:00.856Z,96462.54
2019-03-21T14:52:02.177Z,96462.27
2019-03-21T14:57:03.469Z,96462.38
2019-03-21T16:05:28.519Z,96443.53
2019-03-21T16:10:29.801Z,96448.33
2019-03-21T16:15:31.086Z,96439.43
2019-03-21T16:20:32.397Z,96446.18
2019-03-21T16:25:34.419Z,96451.00
2019-03-21T16:30:35.694Z,96449.97
2019-03-21T16:35:36.997Z,96456.06
2019-03-21T16:40:38.273Z,96452.89
2019-03-21T16:45:39.593Z,96455.95
2019-03-21T16:50:40.880Z,96457.48
2019-03-21T16:55:42.896Z,96459.66
2019-03-21T17:00:44.191Z,96453.17
2019-03-21T17:05:45.507Z,96468.50
2019-03-21T17:10:46.789Z,96469.72
2019-03-21T17:15:48.139Z,96467.95
2019-03-21T17:20:56.709Z,96465.81
2019-03-21T17:25:59.551Z,96471.52
2019-03-21T17:31:02.072Z,96473.48
2019-03-21T17:36:27.313Z,96484.97
2019-03-21T17:41:28.771Z,96486.39
2019-03-21T17:46:38.017Z,96486.25
2019-03-21T17:51:46.857Z,96491.41
2019-03-21T17:56:48.101Z,96490.02
2019-03-21T18:01:49.857Z,96497.69
2019-03-21T18:06:51.976Z,96501.50
2019-03-21T18:11:53.326Z,96500.81
2019-03-21T18:16:54.708Z,96492.45
2019-03-21T18:21:56.347Z,96498.56
2019-03-21T18:26:57.711Z,96508.48
2019-03-21T18:31:59.039Z,96512.91
2019-03-21T18:37:00.419Z,96525.45
2019-03-21T18:42:01.818Z,96529.46
2019-03-21T18:47:03.176Z,96535.68
2019-03-21T18:52:04.553Z,96537.41
2019-03-21T18:57:05.889Z,96533.17
2019-03-21T19:02:07.951Z,96531.07
2019-03-21T19:07:09.287Z,96529.41
2019-03-21T19:12:10.651Z,96532.08
2019-03-21T19:17:11.964Z,96534.44
2019-03-21T19:22:13.339Z,96523.06
2019-03-21T19:27:14.699Z,96517.80
2019-03-21T19:32:16.032Z,96521.88
2019-03-21T19:37:17.390Z,96518.24
2019-03-21T19:42:18.694Z,96517.50
2019-03-21T19:47:24.970Z,96522.72
2019-03-21T19:52:22.105Z,96520.63
2019-03-21T19:57:24.481Z,96525.84
2019-03-21T20:02:27.246Z,96522.62
2019-03-21T20:07:31.781Z,96520.94
2019-03-21T20:12:33.740Z,96515.49
2019-03-21T20:17:40.653Z,96517.30
2019-03-21T20:22:42.030Z,96533.09
2019-03-21T20:27:44.384Z,96536.45
2019-03-21T20:32:52.696Z,96529.95
2019-03-21T20:37:55.582Z,96518.98
2019-03-21T20:42:56.893Z,96514.92
2019-03-21T20:47:59.674Z,96515.48
2019-03-21T20:53:02.022Z,96518.53
2019-03-21T20:58:06.751Z,96523.34
2019-03-21T21:03:08.895Z,96522.47
2019-03-21T21:08:10.918Z,96511.59
2019-03-21T21:13:13.210Z,96512.31
2019-03-21T21:18:18.955Z,96515.99
2019-03-21T21:23:20.301Z,96514.98
2019-03-21T21:28:22.597Z,96504.23
2019-03-21T21:33:25.476Z,96515.52
2019-03-21T21:38:34.447Z,96513.06
2019-03-21T21:43:35.893Z,96508.88
2019-03-21T21:48:38.320Z,96505.33
2019-03-21T21:53:39.666Z,96508.59
2019-03-21T21:58:40.973Z,96493.70
2019-03-21T22:03:46.668Z,96508.95
2019-03-21T22:08:48.134Z,96505.45
2019-03-21T22:13:49.431Z,96508.34
2019-03-21T22:18:50.850Z,96505.55
2019-03-21T22:23:52.158Z,96500.16
2019-03-21T22:28:53.477Z,96495.81
2019-03-21T22:33:54.790Z,96491.66
2019-03-21T22:38:56.120Z,96497.98
2019-03-21T22:43:57.457Z,96490.47
2019-03-21T22:48:59.526Z,96489.81
2019-03-21T22:54:01.634Z,96481.73
2019-03-21T22:59:02.949Z,96479.58
2019-03-21T23:35:44.719Z,96473.80
2019-03-21T23:40:46.026Z,96470.38
2019-03-21T23:45:48.069Z,96473.47
2019-03-21T23:50:49.373Z,96462.75
2019-03-21T23:55:50.661Z,96458.70
